createdAt,value
2018-08-31T00:02:56.758Z,10.80
2018-08-31T00:05:53.774Z,10.67
2018-08-31T00:08:40.448Z,10.97
2018-08-31T00:11:27.799Z,10.50
2018-08-31T00:13:55.965Z,10.90
2018-08-31T00:16:24.144Z,10.73
2018-08-31T00:18:52.325Z,10.70
2018-08-31T00:21:20.506Z,11.13
2018-08-31T00:24:00.137Z,10.73
2018-08-31T00:26:39.850Z,11.80
2018-08-31T00:29:49.745Z,10.83
2018-08-31T00:32:29.221Z,11.07
2018-08-31T00:35:11.682Z,11.70
2018-08-31T00:39:59.854Z,11.40
2018-08-31T00:42:39.593Z,11.67
2018-08-31T00:45:32.549Z,10.90
2018-08-31T00:48:01.608Z,12.27
2018-08-31T00:50:30.233Z,11.40
2018-08-31T00:52:59.026Z,11.10
2018-08-31T00:55:27.262Z,11.60
2018-08-31T00:57:55.501Z,11.90
2018-08-31T01:00:23.617Z,11.83
2018-08-31T01:02:51.816Z,10.70
2018-08-31T01:05:20.140Z,11.00
2018-08-31T01:07:48.776Z,11.93
2018-08-31T01:10:18.382Z,11.70
2018-08-31T01:12:46.638Z,12.23
2018-08-31T01:15:14.812Z,10.83
2018-08-31T01:17:42.985Z,11.80
2018-08-31T01:20:11.181Z,11.80
2018-08-31T01:22:39.387Z,11.90
2018-08-31T01:25:08.025Z,12.27
2018-08-31T01:27:36.231Z,12.20
2018-08-31T01:30:04.961Z,11.80
2018-08-31T01:32:33.137Z,13.80
2018-08-31T01:35:01.485Z,12.97
2018-08-31T01:37:29.683Z,11.47
2018-08-31T01:39:57.877Z,12.33
2018-08-31T01:42:26.137Z,11.57
2018-08-31T01:44:54.308Z,13.20
2018-08-31T01:47:22.493Z,12.50
2018-08-31T01:49:50.681Z,13.43
2018-08-31T01:52:18.840Z,11.67
2018-08-31T01:54:47.022Z,11.37
2018-08-31T01:57:15.196Z,13.03
2018-08-31T01:59:43.376Z,10.63
2018-08-31T02:02:11.557Z,12.13
2018-08-31T02:04:39.749Z,11.30
2018-08-31T02:07:07.937Z,10.20
2018-08-31T02:09:36.118Z,12.33
2018-08-31T02:12:04.308Z,12.87
2018-08-31T02:14:32.476Z,12.17
2018-08-31T02:17:00.637Z,13.27
2018-08-31T02:19:28.818Z,12.47
2018-08-31T02:21:56.993Z,14.00
2018-08-31T02:24:25.174Z,13.00
2018-08-31T02:26:53.342Z,12.40
2018-08-31T02:29:21.513Z,12.83
2018-08-31T02:31:49.685Z,11.87
2018-08-31T02:34:17.878Z,12.47
2018-08-31T02:36:46.058Z,12.10
2018-08-31T02:39:14.303Z,12.63
2018-08-31T02:41:42.393Z,12.70
2018-08-31T02:44:10.564Z,13.00
2018-08-31T02:46:38.740Z,12.00
2018-08-31T02:49:06.916Z,13.60
2018-08-31T02:51:35.097Z,12.80
2018-08-31T02:54:03.350Z,12.10
2018-08-31T02:56:31.537Z,12.80
2018-08-31T02:58:59.706Z,13.33
2018-08-31T03:01:27.871Z,13.27
2018-08-31T03:03:56.025Z,14.80
2018-08-31T03:06:24.208Z,11.43
2018-08-31T03:08:52.414Z,13.47
2018-08-31T03:11:20.357Z,12.57
2018-08-31T03:13:48.584Z,14.33
2018-08-31T03:16:16.780Z,12.67
2018-08-31T03:18:44.925Z,12.37
2018-08-31T03:21:12.923Z,13.10
2018-08-31T03:23:41.271Z,12.90
2018-08-31T03:26:09.477Z,11.90
2018-08-31T03:28:37.672Z,12.90
2018-08-31T03:31:05.885Z,13.47
2018-08-31T03:33:34.078Z,13.27
2018-08-31T03:36:02.340Z,13.03
2018-08-31T03:38:30.512Z,13.77
2018-08-31T03:40:58.728Z,12.10
2018-08-31T03:43:26.874Z,13.90
2018-08-31T03:45:55.031Z,13.97
2018-08-31T03:48:23.188Z,12.70
2018-08-31T03:50:51.361Z,12.93
2018-08-31T03:53:19.527Z,13.33
2018-08-31T03:55:47.700Z,13.57
2018-08-31T03:58:15.861Z,12.90
2018-08-31T04:00:44.049Z,12.60
2018-08-31T04:03:12.022Z,12.30
2018-08-31T04:05:40.203Z,12.30
2018-08-31T04:08:08.422Z,12.77
2018-08-31T04:10:36.637Z,14.40
2018-08-31T04:13:04.572Z,12.23
2018-08-31T04:15:32.772Z,12.70
2018-08-31T04:18:00.715Z,12.43
2018-08-31T04:20:28.666Z,11.73
2018-08-31T04:22:56.844Z,11.07
2018-08-31T04:25:24.805Z,12.70
2018-08-31T04:27:52.989Z,12.17
2018-08-31T04:30:21.148Z,11.93
2018-08-31T04:32:49.305Z,11.13
2018-08-31T04:35:17.478Z,12.83
2018-08-31T04:37:45.639Z,11.33
2018-08-31T04:40:14.029Z,11.93
2018-08-31T04:42:42.201Z,12.00
2018-08-31T04:45:10.347Z,12.13
2018-08-31T04:47:38.522Z,12.17
2018-08-31T04:50:06.797Z,11.33
2018-08-31T04:52:34.963Z,11.70
2018-08-31T04:55:03.127Z,11.93
2018-08-31T04:57:31.328Z,12.83
2018-08-31T04:59:59.529Z,12.30
2018-08-31T05:02:27.737Z,12.47
2018-08-31T05:04:55.890Z,11.20
2018-08-31T05:07:24.061Z,12.77
2018-08-31T05:09:53.221Z,11.90
2018-08-31T05:12:21.444Z,11.57
2018-08-31T05:14:49.611Z,11.67
2018-08-31T05:17:17.785Z,11.30
2018-08-31T05:19:45.937Z,10.17
2018-08-31T05:22:14.101Z,10.50
2018-08-31T05:24:43.297Z,10.73
2018-08-31T05:27:11.449Z,11.30
2018-08-31T05:29:39.722Z,10.63
2018-08-31T05:32:08.005Z,10.53
2018-08-31T05:34:35.984Z,10.23
2018-08-31T05:37:04.212Z,9.90
2018-08-31T05:39:32.378Z,10.33
2018-08-31T05:42:00.566Z,10.77
2018-08-31T05:44:28.761Z,10.03
2018-08-31T05:46:56.942Z,12.00
2018-08-31T05:49:25.117Z,10.60
2018-08-31T05:51:53.308Z,10.13
2018-08-31T05:54:21.497Z,10.17
2018-08-31T05:56:49.679Z,10.20
2018-08-31T05:59:17.854Z,11.83
2018-08-31T06:01:46.043Z,10.60
2018-08-31T06:04:14.216Z,11.40
2018-08-31T06:06:42.421Z,10.93
2018-08-31T06:09:11.132Z,11.20
2018-08-31T06:11:39.063Z,10.30
2018-08-31T06:14:07.253Z,10.00
2018-08-31T06:16:35.183Z,11.77
2018-08-31T06:19:03.392Z,10.30
2018-08-31T06:21:31.665Z,10.30
2018-08-31T06:23:59.916Z,9.97
2018-08-31T06:26:27.862Z,9.10
2018-08-31T06:28:55.780Z,10.23
2018-08-31T06:31:23.711Z,9.80
2018-08-31T06:33:51.693Z,9.53
2018-08-31T06:36:19.825Z,11.33
2018-08-31T06:38:48.016Z,10.50
2018-08-31T06:41:16.210Z,10.73
2018-08-31T06:43:44.126Z,10.60
2018-08-31T06:46:12.079Z,10.67
2018-08-31T06:48:40.264Z,11.23
2018-08-31T06:51:08.436Z,10.80
2018-08-31T06:53:36.645Z,10.10
2018-08-31T06:56:04.817Z,10.43
2018-08-31T06:58:33.000Z,10.53
2018-08-31T07:01:01.342Z,11.03
2018-08-31T07:03:29.276Z,10.30
2018-08-31T07:05:57.455Z,10.40
2018-08-31T07:08:25.656Z,10.60
2018-08-31T07:10:53.828Z,10.73
2018-08-31T07:13:21.765Z,10.70
2018-08-31T07:15:49.736Z,10.33
2018-08-31T07:18:17.893Z,9.93
2018-08-31T07:20:46.066Z,10.23
2018-08-31T07:23:14.240Z,10.63
2018-08-31T07:25:42.443Z,9.97
2018-08-31T07:28:10.643Z,10.47
2018-08-31T07:30:38.829Z,9.50
2018-08-31T07:33:07.050Z,10.40
2018-08-31T07:35:35.238Z,9.73
2018-08-31T07:38:03.397Z,11.47
2018-08-31T07:40:31.575Z,10.00
2018-08-31T07:42:59.721Z,10.20
2018-08-31T07:45:27.908Z,10.17
2018-08-31T07:47:56.109Z,10.90
2018-08-31T07:50:24.310Z,10.10
2018-08-31T07:52:52.487Z,10.80
2018-08-31T07:55:20.661Z,10.80
2018-08-31T07:57:48.853Z,10.90
2018-08-31T08:00:17.045Z,10.43
2018-08-31T08:02:45.205Z,10.10
2018-08-31T08:05:13.389Z,10.27
2018-08-31T08:07:41.570Z,10.67
2018-08-31T08:10:09.738Z,9.60
2018-08-31T08:12:37.904Z,9.63
2018-08-31T08:15:06.101Z,9.57
2018-08-31T08:17:34.272Z,10.53
2018-08-31T08:20:02.519Z,9.70
2018-08-31T08:22:30.705Z,9.80
2018-08-31T08:24:58.883Z,9.57
2018-08-31T08:27:27.070Z,10.30
2018-08-31T08:29:55.252Z,9.87
2018-08-31T08:32:23.465Z,8.60
2018-08-31T08:34:51.650Z,10.00
2018-08-31T08:37:19.827Z,9.73
2018-08-31T08:39:48.010Z,9.37
2018-08-31T08:42:16.176Z,11.07
2018-08-31T08:44:44.383Z,10.30
2018-08-31T08:47:12.585Z,9.67
2018-08-31T08:49:40.745Z,10.00
2018-08-31T08:52:08.982Z,10.13
2018-08-31T08:54:37.207Z,10.60
2018-08-31T08:57:05.337Z,10.50
2018-08-31T08:59:33.524Z,11.73
2018-08-31T09:02:01.702Z,11.57
2018-08-31T09:04:29.893Z,11.40
2018-08-31T09:06:58.095Z,11.10
2018-08-31T09:09:26.293Z,12.47
2018-08-31T09:11:54.506Z,11.97
2018-08-31T09:14:22.661Z,12.50
2018-08-31T09:16:50.880Z,13.10
2018-08-31T09:19:19.045Z,12.60
2018-08-31T09:21:47.205Z,12.30
2018-08-31T09:24:15.377Z,13.77
2018-08-31T09:26:43.580Z,13.07
2018-08-31T09:29:11.777Z,12.80
2018-08-31T09:31:39.979Z,13.70
2018-08-31T09:34:08.179Z,13.60
2018-08-31T09:36:36.338Z,13.47
2018-08-31T09:39:07.154Z,11.77
2018-08-31T09:41:35.351Z,13.17
2018-08-31T09:44:03.763Z,12.13
2018-08-31T09:46:31.680Z,12.40
2018-08-31T09:48:59.853Z,14.00
2018-08-31T09:51:28.020Z,14.30
2018-08-31T09:53:56.290Z,13.60
2018-08-31T09:56:24.448Z,13.83
2018-08-31T09:58:52.607Z,15.10
2018-08-31T10:01:26.207Z,13.30
2018-08-31T10:03:54.372Z,13.90
2018-08-31T10:06:22.557Z,14.20
2018-08-31T10:08:50.727Z,14.10
2018-08-31T10:11:18.887Z,12.90
2018-08-31T10:13:47.045Z,13.37
2018-08-31T10:16:15.218Z,14.23
2018-08-31T10:18:43.452Z,13.80
2018-08-31T10:21:11.325Z,15.20
2018-08-31T10:23:39.517Z,14.10
2018-08-31T10:26:07.706Z,13.87
2018-08-31T10:28:35.876Z,14.57
2018-08-31T10:31:04.076Z,13.63
2018-08-31T10:33:32.490Z,13.63
2018-08-31T10:36:00.649Z,13.80
2018-08-31T10:38:28.817Z,14.30
2018-08-31T10:40:56.995Z,13.47
2018-08-31T10:43:25.166Z,13.90
2018-08-31T10:45:53.329Z,13.87
2018-08-31T10:48:21.489Z,15.30
2018-08-31T10:50:49.792Z,13.10
2018-08-31T10:53:17.970Z,15.50
2018-08-31T10:55:46.122Z,14.20
2018-08-31T10:58:14.264Z,14.57
2018-08-31T11:00:42.421Z,14.97
2018-08-31T11:03:10.565Z,14.63
2018-08-31T11:05:38.729Z,13.50
2018-08-31T11:08:06.877Z,14.20
2018-08-31T11:10:35.016Z,13.70
2018-08-31T11:13:03.269Z,13.07
2018-08-31T11:15:31.334Z,14.27
2018-08-31T11:17:59.505Z,15.07
2018-08-31T11:20:27.653Z,15.60
2018-08-31T11:22:55.810Z,15.10
2018-08-31T11:25:23.939Z,14.90
2018-08-31T11:27:52.118Z,15.00
2018-08-31T11:30:20.194Z,14.23
2018-08-31T11:32:48.324Z,13.90
2018-08-31T11:35:16.490Z,15.27
2018-08-31T11:37:44.630Z,14.00
2018-08-31T11:40:12.781Z,14.97
2018-08-31T11:42:40.943Z,16.17
2018-08-31T11:45:09.088Z,13.80
2018-08-31T11:47:37.263Z,14.63
2018-08-31T11:50:05.617Z,13.90
2018-08-31T11:52:33.768Z,14.00
2018-08-31T11:55:01.940Z,14.60
2018-08-31T11:57:30.177Z,15.53
2018-08-31T11:59:58.349Z,15.87
2018-08-31T12:02:26.496Z,15.70
2018-08-31T12:04:54.460Z,16.57
2018-08-31T12:07:22.603Z,14.40
2018-08-31T12:09:50.759Z,13.43
2018-08-31T12:12:18.930Z,13.17
2018-08-31T12:14:47.090Z,16.07
2018-08-31T12:17:15.263Z,13.27
2018-08-31T12:19:43.178Z,14.67
2018-08-31T12:22:11.372Z,14.87
2018-08-31T12:24:39.542Z,14.93
2018-08-31T12:27:07.702Z,13.27
2018-08-31T12:29:35.877Z,14.17
2018-08-31T12:32:04.058Z,14.63
2018-08-31T12:34:32.273Z,14.70
2018-08-31T12:37:00.442Z,13.80
2018-08-31T12:39:28.661Z,13.90
2018-08-31T12:41:56.840Z,14.20
2018-08-31T12:44:25.028Z,14.17
2018-08-31T12:46:53.200Z,14.13
2018-08-31T12:49:21.366Z,13.70
2018-08-31T12:51:49.527Z,12.30
2018-08-31T12:54:17.682Z,13.83
2018-08-31T12:56:45.849Z,14.50
2018-08-31T12:59:14.000Z,13.90
2018-08-31T13:01:42.177Z,13.07
2018-08-31T13:04:10.326Z,14.80
2018-08-31T13:06:38.524Z,14.57
2018-08-31T13:09:07.400Z,12.53
2018-08-31T13:11:35.740Z,13.87
2018-08-31T13:14:03.917Z,13.20
2018-08-31T13:16:32.108Z,14.03
2018-08-31T13:19:00.316Z,14.63
2018-08-31T13:21:28.474Z,13.70
2018-08-31T13:23:56.670Z,14.70
2018-08-31T13:26:24.843Z,13.90
2018-08-31T13:28:53.029Z,13.03
2018-08-31T13:31:21.232Z,14.63
2018-08-31T13:33:49.462Z,14.63
2018-08-31T13:36:17.633Z,13.97
2018-08-31T13:38:45.809Z,14.10
2018-08-31T13:41:13.974Z,14.57
2018-08-31T13:43:42.150Z,13.50
2018-08-31T13:46:10.298Z,13.27
2018-08-31T13:48:38.478Z,13.27
2018-08-31T13:51:06.729Z,13.37
2018-08-31T13:53:34.926Z,13.27
2018-08-31T13:56:03.093Z,14.80
2018-08-31T13:58:31.458Z,15.13
2018-08-31T14:00:59.598Z,14.27
2018-08-31T14:03:27.902Z,15.53
2018-08-31T14:05:56.091Z,14.10
2018-08-31T14:08:24.252Z,13.67
2018-08-31T14:10:52.418Z,14.17
2018-08-31T14:13:20.584Z,14.57
2018-08-31T14:15:48.769Z,13.67
2018-08-31T14:18:16.941Z,11.43
2018-08-31T14:20:45.110Z,12.27
2018-08-31T14:23:13.301Z,11.23
2018-08-31T14:25:41.466Z,10.90
2018-08-31T14:28:09.668Z,13.13
2018-08-31T14:30:37.848Z,10.90
2018-08-31T14:33:05.993Z,11.37
2018-08-31T14:35:34.180Z,11.77
2018-08-31T14:38:02.359Z,10.87
2018-08-31T14:40:30.525Z,12.00
2018-08-31T14:42:58.697Z,12.27
2018-08-31T14:45:26.849Z,11.57
2018-08-31T14:47:55.010Z,11.00
2018-08-31T14:50:24.644Z,12.00
2018-08-31T14:52:52.815Z,11.50
2018-08-31T14:55:20.967Z,11.43
2018-08-31T14:57:49.122Z,11.83
2018-08-31T15:00:17.777Z,11.83
2018-08-31T15:02:45.917Z,11.40
2018-08-31T15:05:14.085Z,13.00
2018-08-31T15:07:42.242Z,13.60
2018-08-31T15:10:12.627Z,14.43
2018-08-31T15:12:41.041Z,13.40
2018-08-31T15:15:09.210Z,14.43
2018-08-31T15:17:37.343Z,14.03
2018-08-31T15:20:05.763Z,13.73
2018-08-31T15:22:33.897Z,14.57
2018-08-31T15:25:02.455Z,13.40
2018-08-31T15:27:30.600Z,13.03
2018-08-31T15:29:58.741Z,14.00
2018-08-31T15:32:26.891Z,14.07
2018-08-31T15:34:54.821Z,13.03
2018-08-31T15:37:23.003Z,12.90
2018-08-31T15:39:51.208Z,14.27
2018-08-31T15:42:19.411Z,14.17
2018-08-31T15:44:47.498Z,13.00
2018-08-31T15:47:15.673Z,13.63
2018-08-31T15:49:43.882Z,14.17
2018-08-31T15:52:11.970Z,13.80
2018-08-31T15:54:40.110Z,13.23
2018-08-31T15:57:08.273Z,13.20
2018-08-31T15:59:36.398Z,14.67
2018-08-31T16:02:04.605Z,14.00
2018-08-31T16:04:32.729Z,14.00
2018-08-31T16:07:00.878Z,13.37
2018-08-31T16:09:29.046Z,14.53
2018-08-31T16:11:57.203Z,15.83
2018-08-31T16:14:25.339Z,15.40
2018-08-31T16:16:53.487Z,15.50
2018-08-31T16:19:21.469Z,15.80
2018-08-31T16:21:49.656Z,15.00
2018-08-31T16:24:17.797Z,15.50
2018-08-31T16:26:46.088Z,15.90
2018-08-31T16:29:14.258Z,17.70
2018-08-31T16:31:42.392Z,16.40
2018-08-31T16:34:10.552Z,15.43
2018-08-31T16:36:38.705Z,17.70
2018-08-31T16:39:07.921Z,16.27
2018-08-31T16:41:36.099Z,17.70
2018-08-31T16:44:04.226Z,17.03
2018-08-31T16:46:32.564Z,17.20
2018-08-31T16:49:00.721Z,18.17
2018-08-31T16:51:28.877Z,20.97
2018-08-31T16:53:57.026Z,19.53
2018-08-31T16:56:25.186Z,18.23
2018-08-31T16:58:53.338Z,18.67
2018-08-31T17:01:21.505Z,17.70
2018-08-31T17:03:49.656Z,17.37
2018-08-31T17:06:17.814Z,18.23
2018-08-31T17:08:45.994Z,16.33
2018-08-31T17:11:14.197Z,19.63
2018-08-31T17:13:42.374Z,19.90
2018-08-31T17:16:10.531Z,17.30
2018-08-31T17:18:38.701Z,16.63
2018-08-31T17:21:06.876Z,17.07
2018-08-31T17:23:35.044Z,16.60
2018-08-31T17:26:03.222Z,17.40
2018-08-31T17:28:36.754Z,17.67
2018-08-31T17:31:10.337Z,17.37
2018-08-31T17:33:43.925Z,16.10
2018-08-31T17:36:17.351Z,17.40
2018-08-31T17:38:45.505Z,17.10
2018-08-31T17:41:13.634Z,17.50
2018-08-31T17:43:41.785Z,16.57
2018-08-31T17:46:09.919Z,17.10
2018-08-31T17:48:38.074Z,16.17
2018-08-31T17:51:06.228Z,17.13
2018-08-31T17:53:34.359Z,16.40
2018-08-31T17:56:02.530Z,17.63
2018-08-31T17:58:30.677Z,18.20
2018-08-31T18:00:58.831Z,18.43
2018-08-31T18:03:26.985Z,16.80
2018-08-31T18:05:55.126Z,16.80
2018-08-31T18:08:23.293Z,17.23
2018-08-31T18:10:51.469Z,15.57
2018-08-31T18:13:19.637Z,15.43
2018-08-31T18:15:47.800Z,14.23
2018-08-31T18:18:15.921Z,15.77
2018-08-31T18:20:44.066Z,14.73
2018-08-31T18:23:12.206Z,15.10
2018-08-31T18:25:40.350Z,15.17
2018-08-31T18:28:08.486Z,15.07
2018-08-31T18:30:36.661Z,16.30
2018-08-31T18:33:04.951Z,16.60
2018-08-31T18:35:33.221Z,17.30
2018-08-31T18:38:01.353Z,17.03
2018-08-31T18:40:29.502Z,17.63
2018-08-31T18:42:58.049Z,19.10
2018-08-31T18:45:26.405Z,18.73
2018-08-31T18:47:54.618Z,16.70
2018-08-31T18:50:22.767Z,17.60
2018-08-31T18:52:51.766Z,15.63
2018-08-31T18:55:19.941Z,18.07
2018-08-31T18:57:48.203Z,17.17
2018-08-31T19:00:17.555Z,16.20
2018-08-31T19:02:45.735Z,16.73
2018-08-31T19:05:15.952Z,16.37
2018-08-31T19:07:44.121Z,15.70
2018-08-31T19:10:12.332Z,16.73
2018-08-31T19:12:40.509Z,14.93
2018-08-31T19:15:08.667Z,14.40
2018-08-31T19:17:36.825Z,14.60
2018-08-31T19:20:05.013Z,15.30
2018-08-31T19:22:33.186Z,14.50
2018-08-31T19:25:01.401Z,12.83
2018-08-31T19:27:29.578Z,15.00
2018-08-31T19:29:57.748Z,14.83
2018-08-31T19:32:26.027Z,13.50
2018-08-31T19:34:54.184Z,14.33
2018-08-31T19:37:22.333Z,14.90
2018-08-31T19:39:50.479Z,14.67
2018-08-31T19:42:18.613Z,14.20
2018-08-31T19:44:46.758Z,15.53
2018-08-31T19:47:14.925Z,12.93
2018-08-31T19:49:43.102Z,11.87
2018-08-31T19:52:11.267Z,9.90
2018-08-31T19:54:39.468Z,9.57
2018-08-31T19:57:07.621Z,9.93
2018-08-31T19:59:35.525Z,9.57
2018-08-31T20:02:03.644Z,9.90
2018-08-31T20:04:31.713Z,9.77
2018-08-31T20:06:59.868Z,9.57
2018-08-31T20:09:28.016Z,10.50
2018-08-31T20:11:55.940Z,10.53
2018-08-31T20:14:24.430Z,9.67
2018-08-31T20:16:52.590Z,9.57
2018-08-31T20:19:20.787Z,8.23
2018-08-31T20:21:48.713Z,8.93
2018-08-31T20:24:16.840Z,9.93
2018-08-31T20:26:44.986Z,9.50
2018-08-31T20:29:13.135Z,10.10
2018-08-31T20:31:41.052Z,9.60
2018-08-31T20:34:09.298Z,9.30
2018-08-31T20:36:37.469Z,10.27
2018-08-31T20:39:07.584Z,9.10
2018-08-31T20:41:35.712Z,9.23
2018-08-31T20:44:03.857Z,8.70
2018-08-31T20:46:32.022Z,9.20
2018-08-31T20:49:00.185Z,9.77
2018-08-31T20:51:28.077Z,10.47
2018-08-31T20:53:56.237Z,9.37
2018-08-31T20:56:24.149Z,10.27
2018-08-31T20:58:52.051Z,9.80
2018-08-31T21:01:19.971Z,9.13
2018-08-31T21:03:48.321Z,10.13
2018-08-31T21:06:16.240Z,9.77
2018-08-31T21:08:44.144Z,9.40
2018-08-31T21:11:12.286Z,9.40
2018-08-31T21:13:40.196Z,9.47
2018-08-31T21:16:08.350Z,8.70
2018-08-31T21:18:36.470Z,8.60
2018-08-31T21:21:04.613Z,9.50
2018-08-31T21:23:32.769Z,9.30
2018-08-31T21:26:00.958Z,9.13
2018-08-31T21:28:29.097Z,9.20
2018-08-31T21:31:02.450Z,10.00
2018-08-31T21:33:30.447Z,9.80
2018-08-31T21:35:58.637Z,9.87
2018-08-31T21:38:26.806Z,9.67
2018-08-31T21:40:54.719Z,9.87
2018-08-31T21:43:22.633Z,10.47
2018-08-31T21:45:50.771Z,9.43
2018-08-31T21:48:18.734Z,10.20
2018-08-31T21:50:46.906Z,9.43
2018-08-31T21:53:15.091Z,9.07
2018-08-31T21:55:43.226Z,9.73
2018-08-31T21:58:11.390Z,9.13
2018-08-31T22:00:43.557Z,8.90
2018-08-31T22:03:12.485Z,8.70
2018-08-31T22:05:41.255Z,9.80
2018-08-31T22:08:10.180Z,9.50
2018-08-31T22:10:38.297Z,10.00
2018-08-31T22:13:06.476Z,9.40
2018-08-31T22:15:34.641Z,9.60
2018-08-31T22:18:03.830Z,9.70
2018-08-31T22:20:31.856Z,9.70
2018-08-31T22:23:00.021Z,9.97
2018-08-31T22:25:29.243Z,9.97
2018-08-31T22:27:57.457Z,11.37
2018-08-31T22:30:25.614Z,11.17
2018-08-31T22:32:53.555Z,10.47
2018-08-31T22:35:21.689Z,9.67
2018-08-31T22:37:49.613Z,9.57
2018-08-31T22:40:17.763Z,10.90
2018-08-31T22:42:45.910Z,11.30
2018-08-31T22:45:14.892Z,10.80
2018-08-31T22:47:43.894Z,10.93
2018-08-31T22:50:12.784Z,11.60
2018-08-31T22:52:40.939Z,11.40
2018-08-31T22:55:09.114Z,11.87
2018-08-31T22:57:37.296Z,11.73
2018-08-31T23:00:05.540Z,9.87
2018-08-31T23:02:33.717Z,10.70
2018-08-31T23:05:01.637Z,9.83
2018-08-31T23:07:35.175Z,11.90
2018-08-31T23:10:03.428Z,11.43
2018-08-31T23:12:31.662Z,12.43
2018-08-31T23:14:59.813Z,11.20
2018-08-31T23:17:28.526Z,10.87
2018-08-31T23:19:57.506Z,11.17
2018-08-31T23:22:26.518Z,10.60
2018-08-31T23:24:56.734Z,11.13
2018-08-31T23:27:24.916Z,12.23
2018-08-31T23:29:53.148Z,10.60
2018-08-31T23:32:21.299Z,11.20
2018-08-31T23:34:49.479Z,11.27
2018-08-31T23:37:17.635Z,11.63
2018-08-31T23:39:45.837Z,10.97
2018-08-31T23:42:13.998Z,11.80
2018-08-31T23:44:42.153Z,11.57
2018-08-31T23:47:10.330Z,11.77
2018-08-31T23:49:38.477Z,11.30
2018-08-31T23:52:06.487Z,12.00
2018-08-31T23:54:34.666Z,11.60
2018-08-31T23:57:02.843Z,13.37
2018-08-31T23:59:31.025Z,12.27
